Time;durP1;ratioP1;P1;durP2;ratioP2;P2;SDS_P1;SDS_P2;PMS_P1;PMS_P2;Temp;Humidity;BMP_temperature;BMP_pressure;BME280_temperature;BME280_humidity;BME280_pressure;Samples;Min_cycle;Max_cycle;Signal;HPM_P1;HPM_P2
2022/07/19 00:02:06;;;;;;;5.65;3.90;;;;;;;20.21;49.49;101241.03;4934927;29;20055;-86
2022/07/19 00:04:35;;;;;;;3.95;3.30;;;;;;;20.16;49.58;101243.84;4918447;29;20056;-84
2022/07/19 00:07:06;;;;;;;6.32;3.58;;;;;;;20.11;49.74;101247.63;4916022;29;20507;-85
2022/07/19 00:09:32;;;;;;;4.45;3.92;;;;;;;20.08;49.78;101243.28;4934252;29;20071;-85
2022/07/19 00:11:59;;;;;;;5.43;3.67;;;;;;;20.05;50.07;101245.19;4929051;29;20071;-85
2022/07/19 00:14:28;;;;;;;8.07;4.68;;;;;;;20.00;50.62;101245.41;4935265;28;20064;-85
2022/07/19 00:16:55;;;;;;;6.53;4.07;;;;;;;19.95;51.01;101250.03;4949765;28;20126;-86
2022/07/19 00:19:22;;;;;;;5.85;3.35;;;;;;;19.89;51.06;101245.78;4932987;29;20116;-86
2022/07/19 00:21:49;;;;;;;4.55;2.95;;;;;;;19.83;51.08;101246.91;4912833;29;20469;-86
2022/07/19 00:24:15;;;;;;;7.50;3.72;;;;;;;19.77;51.33;101252.41;4932130;29;20048;-85
2022/07/19 00:26:42;;;;;;;8.10;4.68;;;;;;;19.71;51.71;101250.00;4934080;29;20383;-85
2022/07/19 00:29:09;;;;;;;3.28;2.97;;;;;;;19.65;51.88;101250.22;4948818;28;20107;-84
2022/07/19 00:31:36;;;;;;;4.95;3.25;;;;;;;19.60;52.25;101252.19;4929741;29;20051;-84
2022/07/19 00:34:03;;;;;;;4.47;3.58;;;;;;;19.55;52.78;101251.50;4930192;29;20032;-84
2022/07/19 00:36:30;;;;;;;3.72;3.30;;;;;;;19.48;53.51;101251.72;4933293;29;20418;-87
2022/07/19 00:38:57;;;;;;;6.70;3.95;;;;;;;19.44;53.91;101246.59;4917627;29;20047;-84
2022/07/19 00:41:24;;;;;;;5.78;2.92;;;;;;;19.39;54.23;101253.84;4931943;29;20478;-86
2022/07/19 00:43:51;;;;;;;6.22;3.90;;;;;;;19.38;54.13;101252.97;4915430;29;20598;-86
2022/07/19 00:46:23;;;;;;;3.80;3.33;;;;;;;19.38;54.52;101260.94;4915508;29;20056;-85
2022/07/19 00:48:51;;;;;;;5.20;3.60;;;;;;;19.32;54.48;101262.03;4916823;29;20157;-85
2022/07/19 00:51:19;;;;;;;3.75;3.15;;;;;;;19.30;55.18;101255.91;4931704;29;20435;-85
2022/07/19 00:53:46;;;;;;;3.92;2.88;;;;;;;19.26;55.06;101264.03;4931622;29;20040;-85
2022/07/19 00:56:14;;;;;;;6.70;3.70;;;;;;;19.22;55.09;101257.13;4938403;28;20196;-84
2022/07/19 00:58:42;;;;;;;5.68;3.42;;;;;;;19.18;55.08;101262.50;4936418;28;20043;-85
2022/07/19 01:01:10;;;;;;;6.43;3.35;;;;;;;19.15;55.14;101256.44;4921010;29;20069;-85
2022/07/19 01:03:40;;;;;;;4.93;3.70;;;;;;;19.15;55.04;101261.75;4922843;29;20039;-84
2022/07/19 01:06:08;;;;;;;10.40;3.13;;;;;;;19.10;55.60;101261.94;4935826;28;20075;-86
2022/07/19 01:08:37;;;;;;;7.43;3.58;;;;;;;19.05;55.82;101266.53;4935613;28;20051;-86
2022/07/19 01:11:06;;;;;;;6.82;3.42;;;;;;;19.03;55.92;101263.03;4936354;29;20141;-85
2022/07/19 01:13:34;;;;;;;5.60;2.92;;;;;;;18.98;56.11;101257.91;4932562;28;20051;-83
2022/07/19 01:16:01;;;;;;;5.13;4.03;;;;;;;18.94;56.11;101253.63;4934726;29;20479;-84
2022/07/19 01:18:29;;;;;;;5.15;3.47;;;;;;;18.93;56.90;101265.16;4932489;28;20047;-85
2022/07/19 01:20:58;;;;;;;6.53;3.83;;;;;;;18.89;57.05;101257.31;4935806;29;20114;-84
2022/07/19 01:23:25;;;;;;;7.20;3.90;;;;;;;18.83;57.13;101261.91;4931731;29;20483;-84
2022/07/19 01:25:51;;;;;;;6.90;3.63;;;;;;;18.76;57.57;101257.75;4935732;29;20049;-86
2022/07/19 01:28:18;;;;;;;3.83;3.25;;;;;;;18.74;57.65;101267.53;4916839;29;20150;-86
2022/07/19 01:30:45;;;;;;;3.50;3.17;;;;;;;18.74;57.70;101259.56;4920181;28;20471;-85
2022/07/19 01:33:12;;;;;;;7.50;3.95;;;;;;;18.72;57.93;101263.19;4916167;29;20054;-86
2022/07/19 01:35:38;;;;;;;3.72;3.25;;;;;;;18.71;57.96;101261.44;4920771;28;20058;-85
2022/07/19 01:38:05;;;;;;;4.35;2.95;;;;;;;18.67;57.93;101258.06;4931716;29;20095;-87
2022/07/19 01:40:33;;;;;;;6.40;3.15;;;;;;;18.64;58.09;101255.47;4936303;28;20088;-86
2022/07/19 01:42:59;;;;;;;4.80;3.10;;;;;;;18.62;58.46;101252.88;4933196;29;20050;-84
2022/07/19 01:45:27;;;;;;;6.90;3.42;;;;;;;18.60;58.66;101256.50;4933502;28;20055;-85
2022/07/19 01:47:53;;;;;;;5.43;3.75;;;;;;;18.60;58.48;101262.66;4920448;29;20138;-85
2022/07/19 01:50:20;;;;;;;7.70;4.13;;;;;;;18.56;58.83;101263.69;4932346;28;20150;-85
2022/07/19 01:52:47;;;;;;;5.20;3.25;;;;;;;18.53;58.75;101258.50;4914291;29;20050;-85
2022/07/19 01:55:14;;;;;;;6.05;4.25;;;;;;;18.50;58.91;101266.56;4927549;29;20055;-85
2022/07/19 01:57:41;;;;;;;6.78;3.60;;;;;;;18.45;58.30;101263.19;4913284;29;20054;-87
2022/07/19 02:00:08;;;;;;;4.07;3.58;;;;;;;18.42;58.46;101260.63;4912497;29;20051;-86
2022/07/19 02:02:35;;;;;;;4.28;2.92;;;;;;;18.41;58.49;101253.56;4928218;29;20129;-85
2022/07/19 02:05:03;;;;;;;5.32;3.95;;;;;;;18.40;58.73;101262.47;4931901;29;20040;-85
2022/07/19 02:07:29;;;;;;;4.45;3.35;;;;;;;18.38;58.79;101254.53;4915501;29;20051;-84
2022/07/19 02:09:57;;;;;;;4.22;3.72;;;;;;;18.36;58.80;101253.75;4920197;29;20098;-84
2022/07/19 02:12:24;;;;;;;4.47;3.10;;;;;;;18.32;58.72;101255.63;4933194;29;20074;-85
2022/07/19 02:14:51;;;;;;;3.38;3.05;;;;;;;18.32;58.85;101252.97;4929897;29;20048;-84
2022/07/19 02:17:18;;;;;;;7.75;3.75;;;;;;;18.29;58.44;101257.50;4931642;29;20132;-84
2022/07/19 02:19:44;;;;;;;8.70;3.45;;;;;;;18.24;59.47;101262.06;4931747;29;20051;-85
2022/07/19 02:22:11;;;;;;;6.13;3.85;;;;;;;18.19;59.52;101260.44;4916174;29;20415;-85
2022/07/19 02:24:38;;;;;;;4.20;3.38;;;;;;;18.15;59.65;101265.91;4915176;29;20468;-85
2022/07/19 02:27:05;;;;;;;3.97;3.05;;;;;;;18.10;60.02;101268.66;4932036;29;20075;-86
2022/07/19 02:29:31;;;;;;;5.68;2.72;;;;;;;18.06;60.08;101264.38;4915711;29;20055;-85
2022/07/19 02:31:58;;;;;;;4.78;2.85;;;;;;;18.00;60.40;101259.25;4927785;29;20127;-85
2022/07/19 02:34:24;;;;;;;5.13;3.03;;;;;;;17.96;60.37;101263.78;4930461;29;20135;-84
2022/07/19 02:36:51;;;;;;;5.45;3.33;;;;;;;17.94;60.59;101262.09;4930598;29;20047;-85
2022/07/19 02:39:18;;;;;;;6.32;2.85;;;;;;;17.92;60.95;101269.19;4929721;29;20055;-84
2022/07/19 02:41:44;;;;;;;3.25;2.83;;;;;;;17.89;60.82;101270.16;4929333;29;20600;-85
2022/07/19 02:44:13;;;;;;;5.20;3.03;;;;;;;17.85;61.02;101261.44;4929478;29;20098;-85
2022/07/19 02:46:40;;;;;;;6.88;3.08;;;;;;;17.84;61.13;101258.81;4933050;29;20059;-84
2022/07/19 02:49:07;;;;;;;7.70;3.00;;;;;;;17.81;61.03;101269.53;4930847;29;20094;-85
2022/07/19 02:51:33;;;;;;;6.05;3.75;;;;;;;17.78;61.51;101272.25;4932802;29;20086;-85
2022/07/19 02:54:00;;;;;;;4.80;2.47;;;;;;;17.74;61.60;101270.59;4950349;28;20479;-84
2022/07/19 02:56:27;;;;;;;4.55;2.15;;;;;;;17.73;61.71;101276.81;4919000;28;20159;-85
2022/07/19 02:58:54;;;;;;;4.45;3.00;;;;;;;17.68;61.61;101266.38;4911980;29;20536;-85
2022/07/19 03:01:20;;;;;;;4.05;2.83;;;;;;;17.64;61.96;101273.53;4933070;28;20047;-84
2022/07/19 03:03:47;;;;;;;8.80;3.10;;;;;;;17.59;62.39;101270.13;4933184;29;20043;-86
2022/07/19 03:06:17;;;;;;;2.50;2.30;;;;;;;17.56;62.47;101267.59;4933851;28;20507;-85
2022/07/19 03:08:45;;;;;;;3.88;2.50;;;;;;;17.50;62.48;101263.31;4911395;28;20101;-86
2022/07/19 03:11:12;;;;;;;3.53;2.38;;;;;;;17.47;62.57;101260.75;4917500;28;20074;-86
2022/07/19 03:13:39;;;;;;;3.53;2.50;;;;;;;17.43;62.80;101269.69;4918066;28;20106;-85
2022/07/19 03:16:06;;;;;;;5.90;2.92;;;;;;;17.39;62.89;101260.13;4933206;29;20056;-85
2022/07/19 03:18:33;;;;;;;2.72;2.47;;;;;;;17.38;63.10;101262.78;4917032;29;20066;-84
2022/07/19 03:21:01;;;;;;;16.33;4.07;;;;;;;17.35;63.12;101261.09;4934718;29;20169;-84
2022/07/19 03:23:35;;;;;;;4.88;2.75;;;;;;;17.33;63.31;101265.56;4933404;28;20438;-85
2022/07/19 03:26:04;;;;;;;4.00;2.90;;;;;;;17.33;63.37;101265.56;4934252;29;20082;-85
2022/07/19 03:28:31;;;;;;;4.93;2.58;;;;;;;17.30;63.46;101260.34;4909849;28;20134;-86
2022/07/19 03:30:57;;;;;;;5.15;3.35;;;;;;;17.29;63.49;101254.19;4940350;28;20050;-85
2022/07/19 03:33:24;;;;;;;5.90;3.28;;;;;;;17.28;63.60;101246.31;4917136;29;20051;-85
2022/07/19 03:35:51;;;;;;;3.88;2.67;;;;;;;17.27;63.63;101247.22;4934244;28;20069;-85
2022/07/19 03:38:18;;;;;;;5.53;3.03;;;;;;;17.23;63.98;101253.50;4915935;29;20142;-86
2022/07/19 03:40:57;;;;;;;5.20;2.72;;;;;;;17.24;63.82;101255.25;4948881;28;20464;-84
2022/07/19 03:43:24;;;;;;;5.97;3.13;;;;;;;17.22;63.71;101249.97;4916847;29;20043;-85
2022/07/19 03:45:51;;;;;;;5.30;3.03;;;;;;;17.25;63.90;101249.00;4913884;28;20047;-86
2022/07/19 03:48:18;;;;;;;4.35;3.05;;;;;;;17.22;63.88;101260.56;4914782;29;20061;-86
2022/07/19 03:50:45;;;;;;;3.85;2.85;;;;;;;17.27;63.79;101263.09;4934592;29;20044;-86
2022/07/19 03:53:12;;;;;;;6.57;3.47;;;;;;;17.25;64.14;101264.88;4930427;28;20047;-85
2022/07/19 03:55:39;;;;;;;4.07;3.30;;;;;;;17.28;63.76;101275.41;4929759;29;20472;-84
2022/07/19 03:58:06;;;;;;;3.13;2.80;;;;;;;17.29;64.10;101261.28;4931569;29;20055;-85
2022/07/19 04:00:33;;;;;;;6.35;3.28;;;;;;;17.32;63.97;101272.63;4934619;29;20074;-85
2022/07/19 04:02:59;;;;;;;6.85;3.17;;;;;;;17.33;64.24;101269.06;4934169;28;20157;-84
2022/07/19 04:05:26;;;;;;;4.43;2.78;;;;;;;17.37;63.99;101264.56;4918124;29;20242;-85
2022/07/19 04:07:53;;;;;;;6.95;2.85;;;;;;;17.40;64.26;101267.13;4932955;29;20455;-84
2022/07/19 04:10:21;;;;;;;5.85;3.40;;;;;;;17.42;64.15;101264.47;4918010;28;20051;-87
2022/07/19 04:12:47;;;;;;;3.97;2.55;;;;;;;17.42;64.13;101278.53;4916343;28;20592;-86
2022/07/19 04:15:14;;;;;;;12.13;3.60;;;;;;;17.46;64.02;101280.19;4918057;29;20505;-85
2022/07/19 04:17:41;;;;;;;8.00;3.30;;;;;;;17.51;63.87;101280.06;4950637;28;20079;-85
2022/07/19 04:20:08;;;;;;;3.90;2.72;;;;;;;17.52;63.59;101272.09;4933924;29;20146;-86
2022/07/19 04:22:35;;;;;;;4.63;3.38;;;;;;;17.55;63.35;101273.78;4930248;29;20734;-85
2022/07/19 04:25:03;;;;;;;6.18;2.83;;;;;;;17.62;63.19;101277.13;4917278;29;20055;-85
2022/07/19 04:27:31;;;;;;;7.47;3.15;;;;;;;17.71;62.72;101286.59;4915662;29;20051;-85
2022/07/19 04:29:58;;;;;;;6.15;2.97;;;;;;;17.79;62.47;101281.94;4932339;29;20053;-85
2022/07/19 04:32:25;;;;;;;5.68;2.72;;;;;;;17.84;62.28;101282.66;4929674;29;20138;-84
2022/07/19 04:34:51;;;;;;;5.75;2.83;;;;;;;17.90;62.31;101278.97;4932331;29;20044;-85
2022/07/19 04:37:18;;;;;;;5.82;3.47;;;;;;;17.95;62.18;101288.56;4930728;28;20055;-85
2022/07/19 04:39:45;;;;;;;4.53;2.83;;;;;;;18.01;61.97;101279.53;4934677;28;20520;-84
2022/07/19 04:42:11;;;;;;;5.93;3.40;;;;;;;18.07;61.81;101283.78;4932894;28;20133;-86
2022/07/19 04:44:38;;;;;;;12.75;9.60;;;;;;;18.12;62.13;101277.44;4924691;29;20657;-84
2022/07/19 04:47:04;;;;;;;6.60;4.75;;;;;;;18.19;62.23;101278.13;4940488;29;20074;-84
2022/07/19 04:49:31;;;;;;;5.10;3.33;;;;;;;18.27;62.07;101285.84;4923069;28;20058;-85
2022/07/19 04:51:58;;;;;;;3.63;2.90;;;;;;;18.33;62.01;101281.22;4937105;29;20054;-84
2022/07/19 04:54:24;;;;;;;3.00;2.70;;;;;;;18.40;61.73;101281.03;4920724;29;20589;-85
2022/07/19 04:56:52;;;;;;;5.97;3.72;;;;;;;18.44;61.84;101278.22;4929540;28;20692;-85
2022/07/19 04:59:18;;;;;;;6.50;3.97;;;;;;;18.50;61.70;101285.97;4920057;29;20048;-86
2022/07/19 05:01:45;;;;;;;4.80;3.17;;;;;;;18.56;61.67;101279.59;4922095;29;20051;-85
2022/07/19 05:04:12;;;;;;;7.80;3.83;;;;;;;18.62;61.39;101287.34;4936733;28;20079;-84
2022/07/19 05:06:39;;;;;;;4.88;2.40;;;;;;;18.67;61.27;101290.72;4922177;28;20047;-85
2022/07/19 05:09:05;;;;;;;4.75;3.30;;;;;;;18.76;61.14;101291.34;4936361;28;20059;-85
2022/07/19 05:11:32;;;;;;;7.75;3.78;;;;;;;18.82;60.47;101291.13;4934745;29;20492;-85
2022/07/19 05:13:59;;;;;;;4.15;3.72;;;;;;;18.89;60.42;101284.75;4934524;28;20457;-85
2022/07/19 05:16:25;;;;;;;5.93;3.20;;;;;;;18.96;59.74;101280.97;4938073;29;20075;-85
2022/07/19 05:18:52;;;;;;;6.43;3.05;;;;;;;19.01;59.28;101278.16;4951497;28;20031;-85
2022/07/19 05:21:19;;;;;;;5.75;2.65;;;;;;;19.08;59.06;101281.47;4937505;29;20055;-85
2022/07/19 05:23:52;;;;;;;6.40;2.67;;;;;;;19.14;59.07;101283.91;4938303;28;20117;-87
2022/07/19 05:26:18;;;;;;;5.30;2.58;;;;;;;19.19;58.63;101281.97;4919637;28;20086;-86
2022/07/19 05:28:45;;;;;;;3.35;1.92;;;;;;;19.25;58.15;101284.38;4919081;28;20050;-85
2022/07/19 05:31:12;;;;;;;4.13;2.25;;;;;;;19.30;57.95;101279.78;4919748;29;20089;-87
2022/07/19 05:33:38;;;;;;;7.47;2.22;;;;;;;19.36;57.90;101286.69;4934943;29;20075;-85
2022/07/19 05:36:05;;;;;;;3.65;2.25;;;;;;;19.43;57.50;101280.22;4932967;28;20053;-85
2022/07/19 05:38:34;;;;;;;3.13;2.45;;;;;;;19.50;57.45;101284.41;4918681;29;20147;-86
2022/07/19 05:41:01;;;;;;;6.88;2.78;;;;;;;19.57;57.27;101282.38;4937308;28;20057;-85
2022/07/19 05:43:28;;;;;;;7.00;3.42;;;;;;;19.63;56.97;101294.56;4934918;28;20099;-85
2022/07/19 05:45:54;;;;;;;4.93;2.67;;;;;;;19.71;56.87;101292.50;4937204;28;20047;-85
2022/07/19 05:48:21;;;;;;;7.60;2.70;;;;;;;19.78;56.87;101290.47;4934897;28;20050;-85
2022/07/19 05:50:48;;;;;;;5.55;2.63;;;;;;;19.88;56.63;101291.03;4919097;29;20046;-86
2022/07/19 05:53:17;;;;;;;3.58;2.58;;;;;;;19.96;56.54;101288.97;4934736;28;20410;-86
2022/07/19 05:55:44;;;;;;;5.30;2.72;;;;;;;20.04;56.18;101294.84;4938246;28;20051;-86
2022/07/19 05:58:11;;;;;;;5.78;2.55;;;;;;;20.12;56.37;101289.22;4934266;29;20114;-85
2022/07/19 06:00:37;;;;;;;4.65;2.40;;;;;;;20.20;56.36;101296.91;4919698;29;20070;-85
2022/07/19 06:03:05;;;;;;;5.28;2.00;;;;;;;20.28;56.05;101287.69;4935577;28;20039;-88
2022/07/19 06:05:31;;;;;;;4.55;2.60;;;;;;;20.37;55.73;101296.25;4918922;28;20379;-88
2022/07/19 06:07:58;;;;;;;2.97;2.60;;;;;;;20.43;55.83;101296.84;4918363;29;20051;-85
2022/07/19 06:10:25;;;;;;;5.63;2.67;;;;;;;20.51;55.10;101296.56;4951392;28;20058;-85
2022/07/19 06:12:54;;;;;;;6.70;2.90;;;;;;;20.60;54.59;101293.50;4917147;29;20122;-85
2022/07/19 06:15:20;;;;;;;2.67;1.98;;;;;;;20.70;54.33;101295.81;4932524;29;20051;-84
2022/07/19 06:17:47;;;;;;;6.13;2.60;;;;;;;20.82;53.48;101295.34;4918132;29;20644;-86
2022/07/19 06:20:14;;;;;;;3.58;2.10;;;;;;;20.93;53.18;101301.03;4934021;28;20410;-84
2022/07/19 06:22:40;;;;;;;7.15;3.75;;;;;;;21.05;52.47;101304.13;4917870;28;20368;-83
2022/07/19 06:25:08;;;;;;;6.55;2.80;;;;;;;21.17;51.51;101302.75;4914575;28;20198;-87
2022/07/19 06:27:34;;;;;;;4.30;2.22;;;;;;;21.27;51.47;101299.59;4920618;29;20043;-84
2022/07/19 06:30:02;;;;;;;4.05;2.83;;;;;;;21.36;51.09;101298.34;4935242;29;20062;-84
2022/07/19 06:32:29;;;;;;;4.25;2.88;;;;;;;21.41;51.13;101295.50;4936510;29;20077;-87
2022/07/19 06:34:55;;;;;;;3.55;2.40;;;;;;;21.53;50.58;101299.41;4918426;29;20035;-84
2022/07/19 06:37:22;;;;;;;3.15;2.03;;;;;;;21.59;50.23;101300.03;4931316;29;20043;-85
2022/07/19 06:39:49;;;;;;;4.47;1.95;;;;;;;21.68;50.56;101292.53;4932210;29;20530;-87
2022/07/19 06:42:16;;;;;;;4.28;2.50;;;;;;;21.75;50.61;101296.66;4914563;29;20051;-85
2022/07/19 06:44:43;;;;;;;3.42;2.35;;;;;;;21.81;50.61;101305.25;4918515;29;20051;-86
2022/07/19 06:47:10;;;;;;;5.10;2.10;;;;;;;21.89;50.52;101296.88;4935602;29;20048;-85
2022/07/19 06:49:37;;;;;;;2.92;2.00;;;;;;;22.01;50.53;101294.59;4932543;29;20052;-82
2022/07/19 06:52:04;;;;;;;4.80;2.33;;;;;;;22.16;50.29;101293.00;4945586;28;20051;-85
2022/07/19 06:54:30;;;;;;;7.50;2.45;;;;;;;22.29;50.01;101291.47;4935886;29;20051;-85
2022/07/19 06:56:57;;;;;;;5.43;2.88;;;;;;;22.37;49.83;101296.47;4932241;29;20051;-84
2022/07/19 06:59:24;;;;;;;2.95;2.05;;;;;;;22.50;49.41;101299.41;4949122;28;20070;-86
2022/07/19 07:01:52;;;;;;;6.47;2.55;;;;;;;22.63;48.99;101304.06;4932416;29;20126;-85
2022/07/19 07:04:19;;;;;;;4.85;1.55;;;;;;;22.77;48.82;101298.03;4933168;29;20043;-86
2022/07/19 07:06:46;;;;;;;3.05;1.98;;;;;;;22.90;47.99;101300.09;4920989;28;20088;-85
2022/07/19 07:09:13;;;;;;;4.85;2.72;;;;;;;23.04;48.03;101299.41;4915797;29;20051;-84
2022/07/19 07:11:40;;;;;;;2.85;1.85;;;;;;;23.15;48.10;101294.38;4916736;29;20477;-86
2022/07/19 07:14:08;;;;;;;6.80;3.80;;;;;;;23.26;47.48;101285.84;4917519;29;20582;-85
2022/07/19 07:16:35;;;;;;;3.30;1.95;;;;;;;23.41;47.46;101286.81;4907810;28;20059;-86
2022/07/19 07:19:02;;;;;;;6.50;2.10;;;;;;;23.62;46.91;101284.81;4920049;28;20093;-84
2022/07/19 07:21:29;;;;;;;4.78;1.70;;;;;;;23.90;46.30;101286.03;4919802;29;20055;-84
2022/07/19 07:23:56;;;;;;;3.13;1.95;;;;;;;24.31;45.56;101282.81;4933446;28;20050;-86
2022/07/19 07:26:23;;;;;;;2.10;2.00;;;;;;;24.78;44.59;101283.72;4916624;29;20051;-85
2022/07/19 07:28:50;;;;;;;3.47;1.60;;;;;;;25.37;43.74;101286.50;4927461;29;20129;-85
2022/07/19 07:31:20;;;;;;;3.88;2.22;;;;;;;26.06;42.75;101286.69;4918927;29;20160;-84
2022/07/19 07:33:46;;;;;;;3.55;1.80;;;;;;;26.67;41.75;101280.91;4938622;29;22226;-84
2022/07/19 07:36:14;;;;;;;2.53;2.33;;;;;;;27.22;40.55;101284.38;4916931;28;20107;-85
2022/07/19 07:38:40;;;;;;;4.75;2.20;;;;;;;27.50;40.13;101281.59;4916253;29;20159;-87
2022/07/19 07:41:07;;;;;;;2.58;1.70;;;;;;;27.75;39.78;101275.31;4931460;29;20071;-87
2022/07/19 07:43:34;;;;;;;5.30;3.58;;;;;;;28.21;38.58;101287.28;4915303;29;20047;-87
2022/07/19 07:46:01;;;;;;;3.92;1.85;;;;;;;28.80;37.64;101277.53;4934427;28;20152;-85
2022/07/19 07:48:28;;;;;;;2.30;1.45;;;;;;;29.40;36.71;101288.25;4919900;29;20074;-86
2022/07/19 07:50:56;;;;;;;2.67;1.70;;;;;;;29.88;35.16;101279.09;4914563;29;20051;-85
2022/07/19 07:53:23;;;;;;;4.90;2.20;;;;;;;30.27;34.91;101282.19;4933175;29;20066;-85
2022/07/19 07:55:50;;;;;;;1.45;1.38;;;;;;;30.73;34.13;101286.47;4945854;28;20107;-87
2022/07/19 07:58:17;;;;;;;3.75;2.33;;;;;;;31.29;32.61;101282.63;4916547;29;20051;-85
2022/07/19 08:00:44;;;;;;;2.63;1.90;;;;;;;31.75;32.23;101279.56;4931227;29;20105;-85
2022/07/19 08:03:11;;;;;;;1.73;1.63;;;;;;;32.25;31.40;101292.25;4927989;29;20048;-85
2022/07/19 08:05:39;;;;;;;1.98;1.75;;;;;;;32.73;30.47;101283.31;4930491;29;20039;-84
2022/07/19 08:08:06;;;;;;;2.05;1.95;;;;;;;33.15;29.28;101285.69;4912123;29;20056;-86
2022/07/19 08:10:35;;;;;;;3.20;2.00;;;;;;;33.58;27.95;101293.44;4932367;29;20059;-86
2022/07/19 08:13:05;;;;;;;2.92;2.00;;;;;;;33.88;26.63;101286.88;4932807;29;20083;-83
2022/07/19 08:15:32;;;;;;;2.08;1.75;;;;;;;34.24;26.58;101286.09;4912293;29;20082;-86
2022/07/19 08:17:59;;;;;;;4.18;1.58;;;;;;;34.57;25.57;101286.44;4914372;29;20055;-87
2022/07/19 08:20:26;;;;;;;3.85;1.88;;;;;;;34.65;25.18;101288.38;4916807;29;20403;-84
2022/07/19 08:22:52;;;;;;;6.65;1.42;;;;;;;35.07;24.94;101287.69;4948829;28;20048;-86
2022/07/19 08:25:19;;;;;;;1.70;1.48;;;;;;;35.55;24.18;101283.59;4935903;29;20043;-87
2022/07/19 08:27:46;;;;;;;1.63;1.58;;;;;;;35.81;23.50;101282.66;4922275;29;20475;-86
2022/07/19 08:30:17;;;;;;;1.95;1.80;;;;;;;35.95;22.28;101280.38;4935150;29;20036;-86
2022/07/19 08:32:44;;;;;;;2.30;1.77;;;;;;;36.12;22.53;101278.53;4938082;29;20047;-85
2022/07/19 08:35:14;;;;;;;8.10;1.55;;;;;;;36.33;22.00;101276.16;4918858;29;20132;-84
2022/07/19 08:37:42;;;;;;;1.63;1.48;;;;;;;36.63;22.36;101276.56;4936155;29;20050;-86
2022/07/19 08:40:10;;;;;;;7.68;1.95;;;;;;;37.04;21.79;101275.69;4936165;29;20407;-85
2022/07/19 08:42:40;;;;;;;1.20;1.20;;;;;;;37.32;21.64;101272.59;4937390;29;20044;-86
2022/07/19 08:45:12;;;;;;;3.05;2.30;;;;;;;37.49;21.13;101271.50;4916116;29;20360;-86
2022/07/19 08:47:39;;;;;;;;;;;;;;;37.80;20.40;101269.88;4916850;29;20065;-86
2022/07/19 08:50:11;;;;;;;2.30;1.77;;;;;;;38.32;20.19;101260.19;4936485;29;20343;-85
2022/07/19 08:52:38;;;;;;;3.83;1.90;;;;;;;38.40;20.60;101257.38;4910970;29;20052;-86
2022/07/19 08:55:07;;;;;;;3.00;2.08;;;;;;;38.95;19.87;101255.34;4916430;29;20077;-86
2022/07/19 09:00:17;;;;;;;4.85;1.95;;;;;;;39.67;19.20;101269.47;4936660;28;20071;-87
2022/07/19 09:03:21;;;;;;;4.70;1.83;;;;;;;39.94;18.97;101267.88;4932073;29;20209;-85
2022/07/19 09:05:47;;;;;;;2.63;1.23;;;;;;;40.57;18.72;101264.53;4913195;29;20044;-86
2022/07/19 09:08:21;;;;;;;2.25;2.03;;;;;;;41.15;17.85;101261.63;4934322;29;20381;-87
2022/07/19 09:13:31;;;;;;;4.13;2.78;;;;;;;41.91;16.89;101259.03;4935446;29;20515;-85
2022/07/19 09:15:58;;;;;;;3.35;1.70;;;;;;;42.14;16.61;101267.75;4918504;29;20442;-86
2022/07/19 09:18:31;;;;;;;3.38;1.77;;;;;;;42.15;16.08;101261.19;4930597;29;20057;-86
2022/07/19 09:21:02;;;;;;;3.30;2.00;;;;;;;42.39;15.83;101263.59;4930578;29;20039;-86
2022/07/19 09:23:34;;;;;;;1.50;1.40;;;;;;;42.45;15.55;101271.84;4917233;29;20831;-86
2022/07/19 09:26:06;;;;;;;5.05;1.92;;;;;;;42.87;14.85;101266.13;4917226;29;20060;-87
2022/07/19 09:28:36;;;;;;;2.00;1.38;;;;;;;43.02;14.60;101256.78;4932143;29;20072;-87
2022/07/19 09:31:09;;;;;;;4.63;1.60;;;;;;;42.91;14.42;101258.28;4931939;29;20059;-87
2022/07/19 09:33:36;;;;;;;1.65;1.55;;;;;;;42.26;14.71;101261.69;4908235;29;20135;-87
2022/07/19 09:36:14;;;;;;;2.90;2.65;;;;;;;42.06;15.71;101261.59;4931795;29;20391;-86
2022/07/19 09:38:43;;;;;;;1.90;1.30;;;;;;;42.35;15.50;101256.78;4922444;29;20666;-86
2022/07/19 09:41:19;;;;;;;5.20;1.83;;;;;;;42.93;14.74;101256.16;4912586;29;20088;-86
2022/07/19 09:44:00;;;;;;;2.00;1.80;;;;;;;43.22;14.29;101248.47;4928609;29;20123;-86
2022/07/19 09:46:36;;;;;;;2.00;1.83;;;;;;;43.50;14.01;101248.19;4921975;29;20098;-86
2022/07/19 09:49:15;;;;;;;2.03;1.70;;;;;;;43.36;14.17;101239.09;4912799;29;20186;-86
2022/07/19 09:51:48;;;;;;;1.83;1.42;;;;;;;43.60;14.28;101250.50;4926748;29;20044;-87
2022/07/19 09:54:27;;;;;;;2.72;1.55;;;;;;;43.79;13.79;101235.75;4905289;29;20058;-88
2022/07/19 09:56:55;;;;;;;1.05;1.00;;;;;;;43.80;13.43;101236.59;4937798;28;20059;-87
2022/07/19 09:59:27;;;;;;;1.63;1.52;;;;;;;43.90;13.28;101233.34;4909891;29;20443;-87
2022/07/19 10:01:56;;;;;;;2.65;1.70;;;;;;;44.27;12.98;101241.81;4932882;28;20058;-87
2022/07/19 10:04:29;;;;;;;1.67;1.58;;;;;;;44.50;12.96;101243.13;4930957;29;20066;-88
2022/07/19 10:06:59;;;;;;;1.13;1.13;;;;;;;44.84;12.75;101239.00;4932131;29;20134;-86
2022/07/19 10:09:28;;;;;;;2.63;1.40;;;;;;;45.46;12.24;101237.25;4932970;29;20040;-87
2022/07/19 10:11:57;;;;;;;1.10;1.00;;;;;;;45.98;11.89;101236.78;4909667;29;20456;-87
2022/07/19 10:14:23;;;;;;;2.33;1.45;;;;;;;46.08;11.53;101226.81;4910699;29;20051;-85
2022/07/19 10:17:12;;;;;;;3.53;1.33;;;;;;;46.05;11.15;101231.97;4916974;29;20047;-86
2022/07/19 10:19:46;;;;;;;3.83;1.15;;;;;;;46.21;11.36;101231.28;4920891;29;20048;-87
2022/07/19 10:22:25;;;;;;;2.67;0.90;;;;;;;45.92;11.01;101235.78;4929334;29;20392;-87
2022/07/19 10:25:06;;;;;;;1.50;1.50;;;;;;;46.26;11.39;101218.66;4930626;29;20055;-88
2022/07/19 10:27:42;;;;;;;3.88;1.10;;;;;;;46.88;10.56;101232.91;4930412;29;20050;-85
2022/07/19 10:30:12;;;;;;;1.83;1.13;;;;;;;47.42;10.76;101219.91;4932625;29;20482;-86
2022/07/19 10:32:45;;;;;;;0.90;0.90;;;;;;;47.86;10.13;101228.56;4931333;29;20055;-86
2022/07/19 10:35:19;;;;;;;1.00;1.00;;;;;;;47.65;9.50;101225.38;4915416;29;20051;-87
2022/07/19 10:37:56;;;;;;;1.60;0.73;;;;;;;47.41;9.68;101220.97;4931065;29;20052;-86
2022/07/19 10:40:51;;;;;;;1.85;1.17;;;;;;;47.27;9.97;101221.28;4932738;29;20063;-86
2022/07/19 10:43:22;;;;;;;1.48;1.40;;;;;;;47.60;10.08;101208.63;4931098;29;20055;-87
2022/07/19 10:45:58;;;;;;;2.28;1.92;;;;;;;47.40;10.00;101211.00;4925829;29;20411;-87
2022/07/19 10:48:43;;;;;;;1.75;1.00;;;;;;;47.41;9.76;101207.13;4933213;29;20126;-87
2022/07/19 10:51:32;;;;;;;1.42;0.70;;;;;;;47.36;9.43;101205.94;4915823;29;20095;-87
2022/07/19 10:54:06;;;;;;;1.65;1.25;;;;;;;47.10;9.63;101196.28;4918160;28;20126;-86
2022/07/19 10:56:35;;;;;;;0.90;0.88;;;;;;;47.43;9.45;101191.94;4922244;29;20043;-87
2022/07/19 10:59:07;;;;;;;1.60;0.80;;;;;;;47.70;8.98;101180.25;4948145;28;20047;-86
2022/07/19 11:01:36;;;;;;;0.70;0.70;;;;;;;47.67;9.58;101189.09;4932556;28;20143;-86
2022/07/19 11:04:40;;;;;;;0.80;0.80;;;;;;;48.33;8.72;101189.41;4934286;28;20447;-86
2022/07/19 11:07:23;;;;;;;2.17;0.82;;;;;;;48.39;8.72;101187.53;4951947;28;20066;-86
2022/07/19 11:10:02;;;;;;;1.77;0.75;;;;;;;48.59;8.46;101188.97;4935908;29;20043;-87
2022/07/19 11:12:38;;;;;;;2.30;0.90;;;;;;;48.64;8.51;101180.69;4920182;29;20058;-87
2022/07/19 11:15:09;;;;;;;0.98;0.98;;;;;;;48.58;8.95;101179.78;4935829;29;20105;-86
2022/07/19 11:17:36;;;;;;;0.80;0.80;;;;;;;49.01;8.09;101178.16;4920841;29;20043;-87
2022/07/19 11:20:11;;;;;;;0.95;0.95;;;;;;;49.12;7.98;101167.16;4921061;28;20059;-87
2022/07/19 11:22:52;;;;;;;0.68;0.68;;;;;;;49.65;7.49;101167.44;4914022;29;20047;-88
2022/07/19 11:25:35;;;;;;;0.90;0.90;;;;;;;49.89;7.82;101169.91;4934051;29;20051;-86
2022/07/19 11:28:03;;;;;;;0.85;0.85;;;;;;;49.90;8.03;101154.84;4935309;29;20082;-87
2022/07/19 11:30:35;;;;;;;2.40;1.35;;;;;;;50.29;8.32;101157.38;4917277;29;20051;-88
2022/07/19 11:33:06;;;;;;;2.00;0.98;;;;;;;50.45;8.54;101156.41;4934765;29;20173;-86
2022/07/19 11:35:36;;;;;;;1.13;0.95;;;;;;;50.94;7.83;101152.47;4918661;28;20119;-87
2022/07/19 11:38:04;;;;;;;0.98;0.85;;;;;;;51.10;7.50;101149.75;4917639;29;20054;-86
2022/07/19 11:40:38;;;;;;;3.92;1.27;;;;;;;51.37;7.34;101149.53;4932333;29;20050;-88